Time;durP1;ratioP1;P1;durP2;ratioP2;P2;SDS_P1;SDS_P2;PMS_P1;PMS_P2;Temp;Humidity;BMP_temperature;BMP_pressure;BME280_temperature;BME280_humidity;BME280_pressure;Samples;Min_cycle;Max_cycle;Signal;HPM_P1;HPM_P2
2021/05/22 00:00:10;;;;;;;0.20;0.20;;;22.70;49.20;;;;;;5051541;28;20540;-39
2021/05/22 00:02:36;;;;;;;2.42;0.47;;;22.60;49.20;;;;;;5051636;28;20033;-39
2021/05/22 00:05:04;;;;;;;1.48;0.40;;;22.60;49.30;;;;;;5051382;28;20040;-45
2021/05/22 00:07:29;;;;;;;0.50;0.30;;;22.60;49.20;;;;;;5051459;28;20394;-51
2021/05/22 00:09:55;;;;;;;1.55;0.35;;;22.50;49.10;;;;;;5050858;28;20032;-41
2021/05/22 00:12:20;;;;;;;1.77;0.50;;;22.50;49.30;;;;;;5051390;28;20025;-40
2021/05/22 00:14:46;;;;;;;2.20;0.60;;;22.40;49.30;;;;;;5050658;28;20033;-48
2021/05/22 00:17:12;;;;;;;1.13;0.47;;;22.40;49.30;;;;;;5052858;28;20090;-39
2021/05/22 00:19:38;;;;;;;1.02;0.40;;;22.40;49.30;;;;;;5052290;28;20047;-39
2021/05/22 00:22:04;;;;;;;1.85;0.50;;;22.30;49.40;;;;;;5052119;28;20029;-40
2021/05/22 00:24:29;;;;;;;0.60;0.50;;;22.30;49.50;;;;;;5052791;28;20033;-44
2021/05/22 00:26:55;;;;;;;1.52;0.30;;;22.20;49.50;;;;;;5051936;28;20120;-41
2021/05/22 00:29:21;;;;;;;2.78;0.38;;;22.20;49.50;;;;;;5052802;28;20025;-39
2021/05/22 00:31:46;;;;;;;0.60;0.50;;;22.10;49.50;;;;;;5049272;28;20467;-39
2021/05/22 00:34:12;;;;;;;0.38;0.30;;;22.10;49.40;;;;;;5052466;28;20458;-39
2021/05/22 00:36:38;;;;;;;0.35;0.30;;;22.10;49.40;;;;;;5051989;28;20021;-41
2021/05/22 00:39:04;;;;;;;1.73;0.57;;;22.00;49.30;;;;;;5052227;28;20521;-40
2021/05/22 00:41:30;;;;;;;1.02;0.32;;;22.10;49.20;;;;;;5052441;28;20083;-50
2021/05/22 00:43:56;;;;;;;0.40;0.32;;;22.00;49.20;;;;;;5051864;28;20033;-40
2021/05/22 00:46:21;;;;;;;1.00;0.50;;;22.00;49.10;;;;;;5051280;28;20127;-38
2021/05/22 00:48:47;;;;;;;1.30;0.50;;;22.00;49.80;;;;;;5050413;28;20435;-40
2021/05/22 00:51:13;;;;;;;1.52;0.47;;;22.00;49.10;;;;;;5052036;28;20037;-39
2021/05/22 00:53:38;;;;;;;3.90;0.95;;;22.00;49.00;;;;;;5051471;28;20055;-39
2021/05/22 00:56:04;;;;;;;1.15;0.50;;;22.00;48.90;;;;;;5051864;28;20025;-42
2021/05/22 00:58:30;;;;;;;0.90;0.38;;;21.90;48.90;;;;;;5052256;28;20049;-49
2021/05/22 01:00:58;;;;;;;1.13;0.30;;;22.00;48.90;;;;;;5051352;28;20025;-39
2021/05/22 01:03:33;;;;;;;1.08;0.50;;;21.90;48.70;;;;;;5051850;28;20025;-39
2021/05/22 01:06:18;;;;;;;0.57;0.45;;;21.90;48.80;;;;;;5053427;28;20032;-37
2021/05/22 01:09:01;;;;;;;0.77;0.40;;;21.90;48.70;;;;;;5042912;28;20035;-41
2021/05/22 01:11:35;;;;;;;0.93;0.50;;;21.90;48.70;;;;;;5051810;28;20039;-39
2021/05/22 01:14:09;;;;;;;1.23;0.28;;;21.90;48.80;;;;;;5051899;28;20033;-39
2021/05/22 01:16:36;;;;;;;1.85;0.40;;;21.90;48.70;;;;;;5050824;28;20083;-49
2021/05/22 01:19:07;;;;;;;0.75;0.38;;;21.90;48.60;;;;;;5052093;28;20037;-39
2021/05/22 01:21:39;;;;;;;0.60;0.22;;;21.90;48.50;;;;;;5051241;28;20025;-50
2021/05/22 01:24:11;;;;;;;0.98;0.30;;;21.90;48.60;;;;;;5043254;28;20041;-40
2021/05/22 01:26:37;;;;;;;0.22;0.22;;;21.90;48.70;;;;;;5045372;28;20120;-41
2021/05/22 01:29:03;;;;;;;1.48;0.40;;;21.80;48.50;;;;;;5051306;28;20534;-37
2021/05/22 01:31:29;;;;;;;1.15;0.50;;;21.80;48.40;;;;;;5051755;28;20060;-40
2021/05/22 01:33:55;;;;;;;0.35;0.20;;;21.80;48.40;;;;;;5050238;28;20544;-39
2021/05/22 01:36:21;;;;;;;0.20;0.20;;;21.80;48.50;;;;;;5051245;28;20029;-39
2021/05/22 01:38:46;;;;;;;1.02;0.40;;;21.80;48.40;;;;;;5050708;28;20039;-37
2021/05/22 01:41:12;;;;;;;0.85;0.40;;;21.80;48.50;;;;;;5051573;28;20028;-41
2021/05/22 01:43:41;;;;;;;1.48;0.90;;;21.80;48.50;;;;;;5050784;28;20079;-41
2021/05/22 01:46:09;;;;;;;1.70;0.60;;;21.80;48.30;;;;;;5051472;28;20033;-39
2021/05/22 01:48:36;;;;;;;2.20;0.30;;;21.80;49.00;;;;;;5050642;28;20052;-38
2021/05/22 01:51:08;;;;;;;0.40;0.30;;;21.80;48.30;;;;;;5051696;28;20504;-40
2021/05/22 01:53:37;;;;;;;1.55;0.30;;;21.80;48.30;;;;;;5050842;28;20102;-48
2021/05/22 01:56:03;;;;;;;1.05;0.30;;;21.80;48.40;;;;;;5051044;28;20489;-38
2021/05/22 01:58:29;;;;;;;0.52;0.40;;;21.80;48.30;;;;;;5051329;28;20051;-39
2021/05/22 02:00:55;;;;;;;0.57;0.40;;;21.80;48.20;;;;;;5050283;28;20025;-41
2021/05/22 02:03:37;;;;;;;0.40;0.30;;;21.80;48.20;;;;;;5051280;28;20036;-38
2021/05/22 02:06:07;;;;;;;0.80;0.40;;;21.70;48.20;;;;;;5052180;28;20166;-37
2021/05/22 02:08:41;;;;;;;1.73;0.63;;;21.70;48.20;;;;;;5051197;28;20393;-48
2021/05/22 02:11:07;;;;;;;1.00;0.32;;;21.70;48.10;;;;;;5051177;28;20444;-40
2021/05/22 02:13:35;;;;;;;0.60;0.30;;;21.70;48.20;;;;;;5050958;28;20436;-48
2021/05/22 02:16:02;;;;;;;0.65;0.38;;;21.70;48.10;;;;;;5050556;28;20031;-39
2021/05/22 02:18:31;;;;;;;0.60;0.30;;;21.70;48.20;;;;;;5049843;28;20029;-49
2021/05/22 02:21:00;;;;;;;0.63;0.40;;;21.70;48.10;;;;;;5049012;28;20462;-38
2021/05/22 02:23:28;;;;;;;0.47;0.40;;;21.70;48.20;;;;;;5051021;28;20033;-39
2021/05/22 02:25:56;;;;;;;0.20;0.20;;;21.70;48.10;;;;;;5049345;28;20116;-40
2021/05/22 02:28:23;;;;;;;1.88;0.52;;;21.70;48.10;;;;;;5050909;28;20041;-37
2021/05/22 02:30:50;;;;;;;0.45;0.30;;;21.70;48.10;;;;;;5049713;28;20044;-40
2021/05/22 02:33:17;;;;;;;0.57;0.40;;;21.70;48.10;;;;;;5050559;28;20482;-40
2021/05/22 02:35:46;;;;;;;1.95;0.32;;;21.70;48.10;;;;;;5050180;28;20041;-41
2021/05/22 02:38:24;;;;;;;0.52;0.35;;;21.70;48.10;;;;;;5050499;28;20099;-37
2021/05/22 02:40:53;;;;;;;0.52;0.40;;;21.70;48.10;;;;;;5049913;28;20090;-39
2021/05/22 02:43:20;;;;;;;0.30;0.30;;;21.70;48.10;;;;;;5050549;28;20029;-43
2021/05/22 02:45:46;;;;;;;0.52;0.40;;;21.70;48.10;;;;;;5051091;28;20033;-39
2021/05/22 02:48:17;;;;;;;2.67;0.40;;;21.70;48.10;;;;;;5054924;28;20394;-39
2021/05/22 02:50:46;;;;;;;0.88;0.40;;;21.70;48.10;;;;;;5053601;28;20055;-39
2021/05/22 02:53:12;;;;;;;1.45;0.30;;;21.70;48.10;;;;;;5054781;28;20037;-39
2021/05/22 02:55:39;;;;;;;0.80;0.40;;;21.70;48.10;;;;;;5053913;28;20367;-49
2021/05/22 02:58:05;;;;;;;1.48;0.40;;;21.70;48.10;;;;;;5054561;28;20375;-38
2021/05/22 03:00:32;;;;;;;1.27;0.30;;;21.70;48.10;;;;;;5054571;28;20056;-39
2021/05/22 03:02:59;;;;;;;1.75;0.40;;;21.70;48.10;;;;;;5053527;28;20079;-40
2021/05/22 03:05:25;;;;;;;0.65;0.40;;;21.70;48.20;;;;;;5054297;28;20486;-39
2021/05/22 03:07:51;;;;;;;1.55;0.32;;;21.70;48.20;;;;;;5059754;28;20428;-38
2021/05/22 03:10:18;;;;;;;0.30;0.22;;;21.70;48.20;;;;;;5054462;28;20028;-39
2021/05/22 03:12:44;;;;;;;2.15;0.30;;;21.60;48.10;;;;;;5051589;28;20112;-51
2021/05/22 03:15:11;;;;;;;0.90;0.40;;;21.70;48.20;;;;;;5051291;28;20036;-38
2021/05/22 03:17:37;;;;;;;0.85;0.40;;;21.60;48.10;;;;;;5053692;28;20078;-50
2021/05/22 03:20:06;;;;;;;0.30;0.30;;;21.60;48.20;;;;;;5053759;28;20037;-40
2021/05/22 03:22:31;;;;;;;1.75;0.40;;;21.60;48.20;;;;;;5053853;28;20041;-38
2021/05/22 03:24:57;;;;;;;0.80;0.30;;;21.60;48.10;;;;;;5053161;28;20489;-39
2021/05/22 03:27:23;;;;;;;0.55;0.43;;;21.60;48.10;;;;;;5054110;28;20021;-36
2021/05/22 03:29:49;;;;;;;0.52;0.52;;;21.60;48.10;;;;;;5053069;28;20120;-39
2021/05/22 03:32:14;;;;;;;0.60;0.55;;;21.60;48.10;;;;;;5053756;28;20028;-40
2021/05/22 03:34:40;;;;;;;0.40;0.20;;;21.60;48.10;;;;;;5053209;28;20045;-50
2021/05/22 03:37:06;;;;;;;1.63;0.38;;;21.60;48.20;;;;;;5053996;28;20021;-40
2021/05/22 03:39:31;;;;;;;0.70;0.30;;;21.60;48.10;;;;;;5055979;28;20438;-39
2021/05/22 03:41:57;;;;;;;0.57;0.40;;;21.60;48.10;;;;;;5060348;28;20056;-41
2021/05/22 03:44:23;;;;;;;0.32;0.30;;;21.60;48.10;;;;;;5063563;28;20116;-39
2021/05/22 03:46:49;;;;;;;1.75;0.40;;;21.70;48.20;;;;;;5044423;28;20056;-39
2021/05/22 03:49:14;;;;;;;1.48;0.40;;;21.60;48.10;;;;;;5060422;28;20032;-39
2021/05/22 03:51:40;;;;;;;0.60;0.28;;;21.60;48.10;;;;;;5062462;28;20095;-47
2021/05/22 03:54:06;;;;;;;1.00;0.40;;;21.60;48.10;;;;;;5053628;28;20033;-39
2021/05/22 03:56:32;;;;;;;1.17;0.30;;;21.60;48.10;;;;;;5052307;28;20036;-39
2021/05/22 03:58:57;;;;;;;0.75;0.32;;;21.60;48.10;;;;;;5051920;28;20037;-37
2021/05/22 04:01:23;;;;;;;1.10;0.73;;;21.60;48.10;;;;;;5053470;28;20053;-40
2021/05/22 04:03:49;;;;;;;0.22;0.22;;;21.60;48.10;;;;;;5052365;28;20082;-38
2021/05/22 04:06:15;;;;;;;0.95;0.30;;;21.60;48.10;;;;;;5053254;28;20123;-40
2021/05/22 04:08:41;;;;;;;1.17;0.47;;;21.60;48.00;;;;;;5046150;28;20394;-41
2021/05/22 04:11:07;;;;;;;1.05;0.32;;;21.60;48.00;;;;;;5053169;28;20020;-39
2021/05/22 04:13:33;;;;;;;1.10;0.40;;;21.60;48.10;;;;;;5053143;28;20068;-37
2021/05/22 04:15:58;;;;;;;0.80;0.40;;;21.60;48.00;;;;;;5052382;28;20037;-40
2021/05/22 04:18:24;;;;;;;0.20;0.20;;;21.60;48.00;;;;;;5053337;28;20040;-39
2021/05/22 04:20:50;;;;;;;1.02;0.40;;;21.60;48.00;;;;;;5051860;28;20025;-39
2021/05/22 04:23:16;;;;;;;0.68;0.30;;;21.60;48.00;;;;;;5052628;28;20108;-39
2021/05/22 04:25:42;;;;;;;2.42;0.68;;;21.60;48.00;;;;;;5051995;28;20489;-37
2021/05/22 04:28:08;;;;;;;0.57;0.20;;;21.60;48.00;;;;;;5052692;28;20059;-40
2021/05/22 04:30:34;;;;;;;0.75;0.40;;;21.60;48.00;;;;;;5052601;28;20087;-45
2021/05/22 04:33:00;;;;;;;0.60;0.35;;;21.60;48.00;;;;;;5051937;28;20045;-39
2021/05/22 04:35:25;;;;;;;0.43;0.30;;;21.60;48.00;;;;;;5052646;28;20033;-39
2021/05/22 04:37:51;;;;;;;1.35;0.30;;;21.60;47.90;;;;;;5051951;28;20029;-39
2021/05/22 04:40:17;;;;;;;0.30;0.22;;;21.60;47.90;;;;;;5052456;28;20056;-37
2021/05/22 04:42:43;;;;;;;0.40;0.40;;;21.60;48.00;;;;;;5051564;28;20029;-39
2021/05/22 04:45:09;;;;;;;0.70;0.30;;;21.60;48.00;;;;;;5052436;28;20118;-39
2021/05/22 04:47:35;;;;;;;0.35;0.30;;;21.60;48.00;;;;;;5052689;28;20056;-39
2021/05/22 04:50:03;;;;;;;1.70;0.40;;;21.60;48.00;;;;;;5051637;28;20082;-44
2021/05/22 04:52:29;;;;;;;1.08;0.50;;;21.60;47.90;;;;;;5044562;28;20122;-41
2021/05/22 04:54:54;;;;;;;0.60;0.30;;;21.60;48.00;;;;;;5051673;28;20060;-39
2021/05/22 04:57:20;;;;;;;0.43;0.30;;;21.60;47.90;;;;;;5051816;28;20394;-40
2021/05/22 04:59:46;;;;;;;1.67;0.40;;;21.50;47.90;;;;;;5051433;28;20028;-41
2021/05/22 05:02:11;;;;;;;0.65;0.40;;;21.60;47.90;;;;;;5049024;28;20026;-41
2021/05/22 05:04:37;;;;;;;1.67;0.45;;;21.60;48.00;;;;;;5051626;28;20033;-50
2021/05/22 05:07:04;;;;;;;1.77;0.85;;;21.60;47.90;;;;;;5056573;28;20481;-39
2021/05/22 05:09:33;;;;;;;0.82;0.30;;;21.60;47.80;;;;;;5052157;28;20025;-40
2021/05/22 05:12:04;;;;;;;1.38;1.00;;;21.60;47.80;;;;;;5051216;28;20044;-40
2021/05/22 05:14:29;;;;;;;0.98;0.40;;;21.60;47.90;;;;;;5051866;28;20108;-38
2021/05/22 05:16:55;;;;;;;1.55;0.20;;;21.60;47.80;;;;;;5050894;28;20096;-39
2021/05/22 05:19:23;;;;;;;0.80;0.30;;;21.60;47.80;;;;;;5051760;28;20032;-39
2021/05/22 05:21:49;;;;;;;0.82;0.30;;;21.60;47.80;;;;;;5050994;28;20116;-38
2021/05/22 05:24:14;;;;;;;0.77;0.30;;;21.60;47.80;;;;;;5051559;28;20116;-38
2021/05/22 05:26:40;;;;;;;1.48;0.38;;;21.60;47.80;;;;;;5051616;28;20037;-50
2021/05/22 05:29:07;;;;;;;0.55;0.30;;;21.60;47.80;;;;;;5051087;28;20029;-40
2021/05/22 05:31:32;;;;;;;0.30;0.30;;;21.60;47.80;;;;;;5051327;28;20441;-40
2021/05/22 05:33:58;;;;;;;1.05;0.30;;;21.50;47.80;;;;;;5050559;28;20033;-38
2021/05/22 05:36:23;;;;;;;0.75;0.40;;;21.60;47.80;;;;;;5051595;28;20025;-38
2021/05/22 05:38:49;;;;;;;1.05;0.32;;;21.60;47.80;;;;;;5050533;28;20079;-40
2021/05/22 05:41:14;;;;;;;0.57;0.30;;;21.60;47.90;;;;;;5051476;28;20386;-36
2021/05/22 05:43:40;;;;;;;0.57;0.30;;;21.60;47.80;;;;;;5051131;28;20033;-49
2021/05/22 05:46:06;;;;;;;0.70;0.38;;;21.60;47.80;;;;;;5050623;28;20032;-40
2021/05/22 05:48:31;;;;;;;1.65;0.30;;;21.60;47.90;;;;;;5050966;28;20040;-39
2021/05/22 05:50:57;;;;;;;0.57;0.30;;;21.60;47.80;;;;;;5050626;28;20112;-39
2021/05/22 05:53:23;;;;;;;0.57;0.30;;;21.60;47.80;;;;;;5051260;28;20078;-39
2021/05/22 05:55:48;;;;;;;0.35;0.28;;;21.50;47.80;;;;;;5044436;28;20029;-39
2021/05/22 05:58:14;;;;;;;1.00;0.40;;;21.50;47.80;;;;;;5050580;28;20048;-37
2021/05/22 06:00:40;;;;;;;0.57;0.22;;;21.60;47.90;;;;;;5051000;28;20029;-50
2021/05/22 06:03:06;;;;;;;0.65;0.40;;;21.50;47.80;;;;;;5051242;28;20048;-41
2021/05/22 06:05:31;;;;;;;1.08;0.60;;;21.50;47.80;;;;;;5031130;28;20482;-36
2021/05/22 06:07:57;;;;;;;1.20;0.40;;;21.50;47.90;;;;;;5066614;28;20477;-41
2021/05/22 06:10:23;;;;;;;0.70;0.40;;;21.50;47.90;;;;;;5034105;28;20029;-39
2021/05/22 06:12:49;;;;;;;0.75;0.30;;;21.50;47.90;;;;;;5050205;28;20029;-39
2021/05/22 06:17:40;;;;;;;0.50;0.30;;;21.50;47.80;;;;;;5051029;28;20166;-50
2021/05/22 06:20:07;;;;;;;0.93;0.30;;;21.50;47.90;;;;;;5051442;28;20092;-39
2021/05/22 06:22:33;;;;;;;1.65;0.40;;;21.50;47.80;;;;;;5057026;28;20035;-43
2021/05/22 06:24:59;;;;;;;0.43;0.40;;;21.50;47.90;;;;;;5048896;28;20033;-38
2021/05/22 06:27:25;;;;;;;0.57;0.40;;;21.60;47.90;;;;;;5057829;28;20036;-39
2021/05/22 06:29:50;;;;;;;1.13;0.40;;;21.50;47.80;;;;;;5056640;28;20041;-40
2021/05/22 06:32:16;;;;;;;0.50;0.30;;;21.50;47.80;;;;;;5057803;28;20437;-39
2021/05/22 06:34:42;;;;;;;0.77;0.50;;;21.50;47.90;;;;;;5057181;28;20075;-48
2021/05/22 06:37:07;;;;;;;1.33;0.40;;;21.50;47.90;;;;;;5056836;28;20032;-39
2021/05/22 06:39:33;;;;;;;0.82;0.30;;;21.60;47.90;;;;;;5057757;28;20033;-38
2021/05/22 06:41:59;;;;;;;1.50;0.30;;;21.50;47.80;;;;;;5056631;28;20098;-38
2021/05/22 06:44:28;;;;;;;2.13;0.40;;;21.50;47.80;;;;;;5057331;28;20116;-40
2021/05/22 06:46:54;;;;;;;1.17;0.30;;;21.50;47.80;;;;;;5056508;28;20589;-39
2021/05/22 06:49:20;;;;;;;0.63;0.30;;;21.50;47.80;;;;;;5061953;28;20033;-49
2021/05/22 06:51:45;;;;;;;0.70;0.52;;;21.50;47.80;;;;;;5059039;28;20390;-49
2021/05/22 06:54:11;;;;;;;0.98;0.50;;;21.50;48.00;;;;;;5069167;28;20078;-42
2021/05/22 06:56:37;;;;;;;0.75;0.60;;;21.50;48.00;;;;;;5067005;28;20048;-39
2021/05/22 06:59:04;;;;;;;2.95;0.50;;;21.50;48.10;;;;;;5067532;28;20733;-39
2021/05/22 07:01:30;;;;;;;1.02;0.40;;;21.60;48.80;;;;;;5064573;28;20400;-44
2021/05/22 07:03:56;;;;;;;1.95;0.35;;;21.60;48.70;;;;;;5060400;28;20032;-39
2021/05/22 07:06:24;;;;;;;2.45;0.65;;;21.60;48.80;;;;;;5041378;28;20383;-39
2021/05/22 07:08:56;;;;;;;3.70;0.47;;;21.60;49.60;;;;;;5056938;28;20103;-40
2021/05/22 07:11:23;;;;;;;2.35;0.88;;;21.70;48.70;;;;;;5057476;28;20025;-40
2021/05/22 07:13:49;;;;;;;2.03;0.73;;;21.70;48.70;;;;;;5055655;28;20021;-38
2021/05/22 07:16:15;;;;;;;0.65;0.43;;;21.70;48.90;;;;;;5062628;28;20382;-41
2021/05/22 07:18:40;;;;;;;1.35;0.50;;;21.70;49.30;;;;;;5066572;28;20382;-46
2021/05/22 07:21:06;;;;;;;2.03;1.00;;;21.70;49.40;;;;;;5065762;28;20035;-37
2021/05/22 07:23:32;;;;;;;2.05;0.52;;;21.70;49.40;;;;;;5063376;28;20033;-38
2021/05/22 07:25:57;;;;;;;1.58;0.70;;;21.70;49.80;;;;;;5066121;28;20024;-39
2021/05/22 07:28:23;;;;;;;2.70;0.50;;;21.70;49.80;;;;;;5065570;28;20082;-39
2021/05/22 07:30:49;;;;;;;3.90;0.55;;;21.70;49.80;;;;;;5064804;28;20380;-41
2021/05/22 07:33:15;;;;;;;2.60;0.73;;;21.50;48.40;;;;;;5063827;28;20055;-39
2021/05/22 07:35:41;;;;;;;4.18;0.60;;;21.50;45.80;;;;;;5063848;28;20036;-41
2021/05/22 07:38:07;;;;;;;5.50;0.70;;;21.50;48.20;;;;;;5059641;28;20035;-41
2021/05/22 07:40:33;;;;;;;3.25;0.80;;;21.50;48.10;;;;;;5061194;28;20036;-44
2021/05/22 07:42:59;;;;;;;3.42;0.75;;;21.60;48.30;;;;;;5063871;28;20035;-37
2021/05/22 07:45:25;;;;;;;2.08;0.60;;;21.60;48.10;;;;;;5060170;28;20067;-39
2021/05/22 07:47:50;;;;;;;2.60;0.60;;;21.50;48.80;;;;;;5060352;28;20106;-42
2021/05/22 07:50:16;;;;;;;2.95;0.85;;;21.50;48.80;;;;;;5059322;28;20028;-39
2021/05/22 07:52:42;;;;;;;2.00;0.50;;;21.50;48.60;;;;;;5055000;28;20386;-45
2021/05/22 07:55:09;;;;;;;4.82;1.25;;;21.60;48.50;;;;;;5053054;28;20029;-39
2021/05/22 07:57:35;;;;;;;1.27;0.43;;;21.50;48.30;;;;;;5053528;28;20135;-39
2021/05/22 08:00:01;;;;;;;2.78;1.00;;;21.50;48.20;;;;;;5052567;28;20160;-40
2021/05/22 08:02:26;;;;;;;3.47;0.70;;;21.50;48.30;;;;;;5053284;28;20082;-41
2021/05/22 08:04:52;;;;;;;3.47;0.75;;;21.50;48.10;;;;;;5052613;28;20510;-39
2021/05/22 08:07:18;;;;;;;3.78;0.70;;;21.50;48.00;;;;;;5053219;28;20083;-38
2021/05/22 08:09:43;;;;;;;5.80;2.05;;;21.40;48.20;;;;;;5053171;28;20127;-49
2021/05/22 08:12:09;;;;;;;3.15;0.80;;;21.50;48.30;;;;;;5051800;28;20024;-39
2021/05/22 08:14:34;;;;;;;3.90;0.60;;;21.50;48.30;;;;;;5053351;28;20037;-39
2021/05/22 08:17:00;;;;;;;3.72;0.70;;;21.40;48.10;;;;;;5051824;28;20036;-37
2021/05/22 08:19:26;;;;;;;6.82;1.15;;;21.50;48.00;;;;;;5053343;28;20027;-41
2021/05/22 08:21:52;;;;;;;4.65;1.10;;;21.40;46.40;;;;;;5052135;28;20040;-44
2021/05/22 08:24:17;;;;;;;4.68;0.80;;;21.20;45.30;;;;;;5053421;28;20074;-39
2021/05/22 08:26:43;;;;;;;1.95;0.60;;;21.20;45.60;;;;;;5052865;28;20033;-39
2021/05/22 08:29:09;;;;;;;2.58;1.10;;;21.20;45.90;;;;;;5051864;28;20572;-42
2021/05/22 08:31:36;;;;;;;5.68;0.60;;;21.30;46.10;;;;;;5053069;28;20071;-38
2021/05/22 08:34:02;;;;;;;4.68;0.88;;;21.40;46.20;;;;;;5052174;28;20064;-47
2021/05/22 08:36:28;;;;;;;5.10;0.82;;;21.40;46.10;;;;;;5052721;28;20479;-41
2021/05/22 08:38:55;;;;;;;3.47;0.60;;;21.30;44.80;;;;;;5047206;28;20036;-49
2021/05/22 08:41:21;;;;;;;1.52;0.50;;;21.20;43.80;;;;;;5052832;28;20031;-39
2021/05/22 08:43:48;;;;;;;3.80;0.80;;;21.20;44.00;;;;;;5052266;28;20068;-37
2021/05/22 08:46:16;;;;;;;3.42;0.63;;;21.20;44.40;;;;;;5051853;28;20086;-39
2021/05/22 08:48:43;;;;;;;3.88;0.80;;;21.30;44.20;;;;;;5052641;28;20036;-39
2021/05/22 08:51:09;;;;;;;2.65;0.85;;;21.40;44.80;;;;;;5051527;28;20087;-40
2021/05/22 08:53:37;;;;;;;2.78;0.70;;;21.40;45.00;;;;;;5052951;28;20036;-39
2021/05/22 08:56:03;;;;;;;2.67;0.77;;;21.50;45.20;;;;;;5052836;28;20032;-40
2021/05/22 08:58:29;;;;;;;14.50;1.33;;;21.50;44.20;;;;;;5053017;28;20045;-39
2021/05/22 09:00:57;;;;;;;4.97;0.82;;;21.40;44.10;;;;;;5053011;28;20036;-38
2021/05/22 09:03:23;;;;;;;4.57;1.05;;;21.30;40.30;;;;;;5053187;28;20025;-38
2021/05/22 09:05:48;;;;;;;3.72;0.93;;;21.30;39.00;;;;;;5053099;28;20028;-40
2021/05/22 09:08:17;;;;;;;3.10;0.70;;;21.20;40.20;;;;;;5072621;28;20035;-37
2021/05/22 09:10:49;;;;;;;5.03;0.70;;;21.30;40.50;;;;;;5073069;28;20090;-38
2021/05/22 09:13:24;;;;;;;1.40;0.55;;;21.50;41.10;;;;;;5072549;28;20012;-38
2021/05/22 09:16:03;;;;;;;2.53;0.65;;;21.50;42.40;;;;;;5073169;28;20032;-35
2021/05/22 09:18:36;;;;;;;4.63;1.05;;;21.60;43.10;;;;;;5064216;28;20476;-38
2021/05/22 09:21:06;;;;;;;2.10;0.60;;;21.60;43.20;;;;;;5062394;28;20017;-37
2021/05/22 09:23:40;;;;;;;3.45;0.70;;;21.60;42.90;;;;;;5072976;28;20070;-38
2021/05/22 09:26:09;;;;;;;1.75;0.80;;;21.60;43.10;;;;;;5072335;28;20021;-38
2021/05/22 09:28:38;;;;;;;4.63;0.75;;;21.60;43.40;;;;;;5072777;28;20032;-38
2021/05/22 09:31:05;;;;;;;2.47;0.52;;;21.60;43.20;;;;;;5061596;28;20025;-40
2021/05/22 09:33:34;;;;;;;9.95;0.98;;;21.50;43.10;;;;;;5045648;28;20056;-38
2021/05/22 09:36:07;;;;;;;3.50;0.65;;;21.50;43.20;;;;;;5051640;28;20363;-37
2021/05/22 09:38:37;;;;;;;3.55;0.63;;;21.60;43.00;;;;;;5052421;28;20084;-35
2021/05/22 09:41:16;;;;;;;3.20;0.80;;;21.60;43.50;;;;;;5051910;28;20520;-38
2021/05/22 09:44:09;;;;;;;1.58;0.73;;;21.60;43.30;;;;;;5052132;28;20032;-37
2021/05/22 09:46:44;;;;;;;2.90;0.60;;;21.60;43.30;;;;;;5052292;28;20112;-41
2021/05/22 09:49:22;;;;;;;1.75;0.50;;;21.60;43.20;;;;;;5051493;28;20104;-37
2021/05/22 09:52:01;;;;;;;3.20;0.50;;;21.60;43.00;;;;;;5052179;28;20055;-35
2021/05/22 09:54:40;;;;;;;2.47;0.68;;;21.60;43.20;;;;;;5051298;28;20061;-39
2021/05/22 09:57:06;;;;;;;2.40;0.70;;;21.60;42.60;;;;;;5051194;28;20153;-40
2021/05/22 09:59:32;;;;;;;3.13;0.60;;;21.60;43.20;;;;;;5050716;28;20064;-40
2021/05/22 10:01:59;;;;;;;5.78;0.70;;;21.60;43.40;;;;;;5049195;28;20506;-43
2021/05/22 10:04:25;;;;;;;4.22;0.63;;;21.50;40.70;;;;;;5050463;28;20041;-34
2021/05/22 10:06:56;;;;;;;2.67;0.80;;;21.40;42.70;;;;;;5050855;28;20044;-33
2021/05/22 10:09:24;;;;;;;4.13;0.68;;;21.50;42.10;;;;;;5051417;28;20032;-35
2021/05/22 10:12:11;;;;;;;2.75;0.60;;;20.80;36.50;;;;;;5051583;28;20470;-35
2021/05/22 10:14:42;;;;;;;2.78;0.70;;;20.40;36.50;;;;;;5051073;28;20037;-38
2021/05/22 10:17:09;;;;;;;2.97;0.63;;;20.40;36.30;;;;;;5050593;28;20025;-35
2021/05/22 10:19:37;;;;;;;3.75;0.75;;;20.50;36.30;;;;;;5051476;28;20313;-35
2021/05/22 10:22:04;;;;;;;1.65;0.60;;;20.50;36.20;;;;;;5051322;28;20025;-36
2021/05/22 10:24:31;;;;;;;2.63;0.70;;;20.40;35.80;;;;;;5051259;28;20411;-36
2021/05/22 10:26:57;;;;;;;4.72;1.00;;;20.70;38.00;;;;;;5043609;28;20148;-36
2021/05/22 10:29:24;;;;;;;4.75;1.00;;;20.80;36.00;;;;;;5050858;28;20367;-37
2021/05/22 10:31:51;;;;;;;5.93;0.90;;;20.60;36.20;;;;;;5032818;28;20036;-34
2021/05/22 10:34:21;;;;;;;3.70;0.88;;;20.60;37.70;;;;;;5050416;28;20025;-36
2021/05/22 10:36:54;;;;;;;4.32;0.85;;;20.70;36.20;;;;;;5051387;28;20029;-36
2021/05/22 10:39:39;;;;;;;2.83;0.82;;;20.80;38.00;;;;;;5050599;28;20103;-36
2021/05/22 10:42:18;;;;;;;9.00;1.23;;;20.70;36.20;;;;;;5050536;28;20382;-35
2021/05/22 10:44:44;;;;;;;7.05;1.58;;;20.90;38.40;;;;;;5050892;28;20045;-34
2021/05/22 10:47:12;;;;;;;11.40;1.60;;;21.20;38.50;;;;;;5049824;28;20040;-35
2021/05/22 10:50:02;;;;;;;4.40;1.20;;;21.30;38.90;;;;;;5050759;28;20409;-35
2021/05/22 10:52:29;;;;;;;7.28;1.40;;;21.40;38.60;;;;;;5051037;28;20035;-36
2021/05/22 10:55:07;;;;;;;4.50;1.23;;;21.50;38.60;;;;;;5050706;28;20610;-40
2021/05/22 10:57:54;;;;;;;4.68;1.60;;;21.50;39.20;;;;;;5050931;28;20049;-35
2021/05/22 11:00:24;;;;;;;13.10;1.80;;;21.50;39.40;;;;;;5050291;28;20033;-36
2021/05/22 11:03:08;;;;;;;7.97;1.73;;;21.60;39.40;;;;;;5050859;28;20124;-35
2021/05/22 11:05:39;;;;;;;6.82;1.65;;;21.60;39.40;;;;;;5050540;28;20033;-35
2021/05/22 11:08:04;;;;;;;5.07;1.08;;;21.60;39.40;;;;;;5072084;28;20082;-37
2021/05/22 11:10:43;;;;;;;6.85;1.45;;;21.60;39.60;;;;;;5074164;28;20024;-36
2021/05/22 11:13:29;;;;;;;7.03;1.40;;;21.60;39.60;;;;;;5073720;28;20028;-35
2021/05/22 11:15:57;;;;;;;5.10;1.08;;;21.60;39.90;;;;;;5073634;28;20094;-41
2021/05/22 11:18:26;;;;;;;11.00;2.13;;;21.60;40.00;;;;;;5074362;28;20103;-34
2021/05/22 11:21:15;;;;;;;7.63;1.30;;;21.60;40.20;;;;;;5065559;28;20040;-35
2021/05/22 11:24:01;;;;;;;14.00;1.80;;;21.70;40.20;;;;;;5054603;28;20025;-35
2021/05/22 11:26:49;;;;;;;7.65;1.48;;;21.70;40.10;;;;;;5054553;28;20043;-36
2021/05/22 11:29:15;;;;;;;4.75;1.02;;;21.60;40.10;;;;;;5053788;28;20810;-35
2021/05/22 11:31:41;;;;;;;8.77;1.52;;;21.70;39.90;;;;;;5054126;28;20032;-34
2021/05/22 11:34:22;;;;;;;9.38;1.30;;;21.70;39.90;;;;;;5072369;28;20104;-35
2021/05/22 11:37:09;;;;;;;11.80;1.20;;;21.70;40.20;;;;;;5074895;28;20037;-35
2021/05/22 11:39:47;;;;;;;5.68;1.00;;;21.70;40.10;;;;;;5074804;28;20031;-35
2021/05/22 11:42:32;;;;;;;6.93;1.10;;;21.70;40.20;;;;;;5073505;28;20113;-36
2021/05/22 11:45:01;;;;;;;7.50;1.80;;;21.70;40.40;;;;;;5073282;28;20101;-41
2021/05/22 11:47:34;;;;;;;8.68;1.40;;;21.70;40.20;;;;;;5066622;28;20036;-35
2021/05/22 11:50:02;;;;;;;8.20;1.60;;;21.70;39.90;;;;;;5033399;28;20386;-36
2021/05/22 11:52:33;;;;;;;6.50;1.20;;;21.70;40.00;;;;;;5051647;28;20363;-36
2021/05/22 11:55:00;;;;;;;10.82;1.45;;;21.80;40.00;;;;;;5052969;28;20040;-41
2021/05/22 11:57:26;;;;;;;10.20;1.10;;;21.80;40.00;;;;;;5053876;28;20052;-35
2021/05/22 11:59:52;;;;;;;7.35;1.05;;;21.80;40.10;;;;;;5053789;28;20045;-36
2021/05/22 12:02:37;;;;;;;16.88;1.42;;;21.80;40.00;;;;;;5053329;28;20021;-35
2021/05/22 12:05:05;;;;;;;9.20;1.30;;;21.80;39.80;;;;;;5052764;28;20025;-35
2021/05/22 12:07:56;;;;;;;2.40;0.60;;;21.80;39.90;;;;;;5068057;28;20029;-35
2021/05/22 12:10:28;;;;;;;3.97;0.68;;;21.60;34.20;;;;;;5072930;28;20021;-34
2021/05/22 12:13:00;;;;;;;;;;;21.20;33.80;;;;;;5074008;28;20028;-35
2021/05/22 12:15:28;;;;;;;5.72;1.05;;;21.40;38.90;;;;;;5057684;28;19951;-35
2021/05/22 12:17:58;;;;;;;5.13;0.80;;;21.50;36.90;;;;;;5053196;28;20021;-34
2021/05/22 12:20:26;;;;;;;5.60;1.05;;;21.60;37.20;;;;;;5053298;28;20481;-34
2021/05/22 12:22:51;;;;;;;4.95;0.90;;;21.70;37.80;;;;;;5053814;28;20033;-35
2021/05/22 12:25:18;;;;;;;1.90;0.77;;;21.70;38.10;;;;;;5052290;28;20450;-35
2021/05/22 12:27:43;;;;;;;3.00;0.75;;;21.70;38.40;;;;;;5053666;28;20035;-35
2021/05/22 12:30:10;;;;;;;4.05;1.00;;;21.80;38.50;;;;;;5052536;28;20033;-34
2021/05/22 12:32:35;;;;;;;3.22;0.70;;;21.60;40.60;;;;;;5053313;28;20028;-35
2021/05/22 12:35:04;;;;;;;3.97;0.70;;;21.40;37.70;;;;;;5052048;28;20166;-35
2021/05/22 12:37:30;;;;;;;6.90;1.30;;;21.60;41.20;;;;;;5053283;28;20024;-35
2021/05/22 12:40:05;;;;;;;1.15;0.63;;;21.70;39.90;;;;;;5035418;28;20055;-38
2021/05/22 12:42:32;;;;;;;2.17;0.60;;;21.30;31.70;;;;;;5052990;28;20032;-35
2021/05/22 12:45:12;;;;;;;2.80;0.57;;;21.20;37.30;;;;;;5051926;28;20048;-41
2021/05/22 12:47:40;;;;;;;3.03;0.63;;;21.10;34.20;;;;;;5053217;28;20028;-35
2021/05/22 12:50:08;;;;;;;0.90;0.50;;;21.10;38.10;;;;;;5051924;28;20037;-39
2021/05/22 12:52:50;;;;;;;3.33;0.50;;;21.20;37.50;;;;;;5052237;28;20053;-36
2021/05/22 12:55:36;;;;;;;1.75;0.45;;;21.30;37.90;;;;;;5052273;28;20232;-35